• Join FlightAware (Why Join?)
  • Login
  • US Flag 
07:33AM EDT


 

Airport Tracker/Info


-or-


 

Live Flight TrackerFlight Track Log ✈ RPA3228 ✈ 10-Sep-2013 ✈ KDCA - KBUF

Flight Track Log - Related Links

Times and Time Zones

All times are in EDT time to prevent confusion due to time zone crossing. See the RPA3228 flight status page for this flight to view local times or setup timezone preferences in your user account.

Time Position Orientation Groundspeed Altitude Reporting Facility
EDT Latitude Longitude Course Direction KTS MPH feet Rate Location/Type
10:26AM 38.8167 -77.0333 339° North 157 181 1,500  Level Potomac TRACON
10:27AM 38.7500 -77.0333 180° South 259 298 3,000 2,340 Climbing Potomac TRACON
10:28AM 39.1235 -77.1436 337° Northwest  Level Estimated
10:28AM 38.7500 -77.1167 270° West 281 323 6,200  Level Potomac TRACON
10:29AM 39.2075 -77.1994 333° Northwest  Level FlightAware Approximate
10:29AM 38.8000 -77.1667 322° Northwest 289 333 9,200  Level Potomac TRACON
10:30AM 39.2981 -77.2345 339° North  Level Estimated
10:30AM 38.8667 -77.2333 322° Northwest 303 349 11,100  Level Potomac TRACON
10:31AM 39.3887 -77.2697 339° North  Level Estimated
10:32AM 38.9753 -77.3672 316° Northwest 332 382 14,400  Level Washington Center
10:33AM 39.0578 -77.4253 331° Northwest 338 389 16,600 1,440 Climbing Washington Center
10:34AM 39.1536 -77.4303 358° North 322 371 17,400 1,320 Climbing Washington Center
10:36AM 39.3306 -77.4389 358° North 339 390 20,300 1,620 Climbing New York Center
10:37AM 39.4367 -77.4461 357° North 357 411 21,800 1,860 Climbing New York Center
10:38AM 39.5406 -77.4506 358° North 371 427 24,000 1,080 Climbing New York Center
10:39AM 39.6486 -77.4581 357° North 377 434 24,000  Level New York Center
10:40AM 39.7614 -77.4553 North 389 448 24,000  Level New York Center
10:41AM 39.8758 -77.4608 358° North 400 460 24,000  Level New York Center
10:42AM 39.9842 -77.4983 345° North 400 460 24,000  Level New York Center
10:43AM 40.0944 -77.5414 343° North 405 466 24,000  Level New York Center
10:44AM 40.2047 -77.5794 345° North 410 472 24,000  Level New York Center
10:45AM 40.3131 -77.6200 344° North 410 472 24,000  Level New York Center
10:46AM 40.4189 -77.6606 344° North 410 472 24,000  Level New York Center
10:47AM 40.5264 -77.7122 340° North 410 472 24,000  Level New York Center
10:49AM 40.7564 -77.8803 331° Northwest 415 478 24,000  Level Cleveland Center
10:50AM 40.8561 -77.9503 332° Northwest 409 471 24,000  Level Cleveland Center
10:51AM 40.9597 -78.0094 337° Northwest 409 471 24,000  Level Cleveland Center
10:52AM 41.0689 -78.0492 345° North 398 458 24,000  Level Cleveland Center
10:53AM 41.1781 -78.0864 346° North 398 458 24,000  Level Cleveland Center
10:54AM 41.2917 -78.1264 345° North 408 470 24,000  Level Cleveland Center
10:55AM 41.3986 -78.1639 345° North 408 470 24,000  Level Cleveland Center
10:56AM 41.4956 -78.2017 344° North 403 464 24,000  Level Cleveland Center
10:57AM 41.6067 -78.2392 346° North 403 464 24,000 -60 Level Cleveland Center
10:58AM 41.7139 -78.2800 344° North 403 464 23,900 -1,080 Descending Cleveland Center
10:59AM 41.8189 -78.3181 345° North 398 458 21,900 -2,100 Descending Cleveland Center
11:00AM 41.9217 -78.3533 346° North 398 458 19,800 -2,100 Descending Cleveland Center
11:01AM 42.0261 -78.3694 353° North 382 440 17,700 -2,100 Descending Cleveland Center
11:02AM 42.1244 -78.3742 358° North 368 423 15,600 -1,980 Descending Cleveland Center
11:03AM 42.2222 -78.3767 359° North 343 395 13,800 -1,860 Descending Cleveland Center
11:04AM 42.3036 -78.3764 360° North 309 356 11,900 -1,620 Descending Cleveland Center
11:05AM 42.3828 -78.3767 360° North 288 331 10,600 -1,740 Descending Cleveland Center
11:06AM 42.4578 -78.3711 North 276 318 8,500 -1,860 Descending Cleveland Center
11:07AM 42.5267 -78.3744 358° North 271 312 6,900 -1,620 Descending Cleveland Center
11:08AM 42.6019 -78.3858 354° North 271 312 5,300 -1,020 Descending Cleveland Center
11:09AM 42.6450 -78.4550 310° West 233 268 4,900 -240 Descending Cleveland Center
11:10AM 42.7017 -78.4869 337° Northwest 228 262 4,900  Level Cleveland Center
11:11AM 42.7783 -78.4561 16° North 222 255 4,900  Level Cleveland Center
11:12AM 42.8486 -78.4308 15° North 248 285 4,900 -360 Level Cleveland Center
11:14AM 42.9500 -78.4667 345° North 224 258 4,000 -900 Descending Buffalo TRACON
11:15AM 43.0000 -78.5333 316° Northwest 215 247 2,400 -840 Descending Buffalo TRACON
11:16AM 43.0333 -78.5833 312° West 212 244 2,400  Level Buffalo TRACON
11:17AM 43.0167 -78.6333 246° West 147 169 2,400 -420 Level Buffalo TRACON
11:18AM 42.9833 -78.6833 228° Southwest 149 171 1,600 -720 Descending Buffalo TRACON
11:19AM 42.9500 -78.7000 200° South 119 137 1,100 -600 Descending Buffalo TRACON